sensor_id;sensor_type;location;lat;lon;timestamp;temperature;humidity
15103;DHT22;7652;53.584;9.998;2024-03-07T00:02:27;4.70;99.90
15103;DHT22;7652;53.584;9.998;2024-03-07T00:05:49;4.70;99.90
15103;DHT22;7652;53.584;9.998;2024-03-07T00:09:12;4.80;99.90
15103;DHT22;7652;53.584;9.998;2024-03-07T00:12:36;4.90;99.90
15103;DHT22;7652;53.584;9.998;2024-03-07T00:16:01;4.90;99.90
15103;DHT22;7652;53.584;9.998;2024-03-07T00:19:23;5.00;99.90
15103;DHT22;7652;53.584;9.998;2024-03-07T00:22:47;5.10;99.90
15103;DHT22;7652;53.584;9.998;2024-03-07T00:26:10;5.10;99.90
15103;DHT22;7652;53.584;9.998;2024-03-07T00:29:31;5.10;99.90
15103;DHT22;7652;53.584;9.998;2024-03-07T00:32:56;5.20;99.90
15103;DHT22;7652;53.584;9.998;2024-03-07T00:36:18;5.20;99.90
15103;DHT22;7652;53.584;9.998;2024-03-07T00:39:41;5.30;99.90
15103;DHT22;7652;53.584;9.998;2024-03-07T00:43:04;5.30;99.90
15103;DHT22;7652;53.584;9.998;2024-03-07T00:46:26;5.40;99.90
15103;DHT22;7652;53.584;9.998;2024-03-07T00:49:47;5.40;99.90
15103;DHT22;7652;53.584;9.998;2024-03-07T00:53:10;5.50;99.90
15103;DHT22;7652;53.584;9.998;2024-03-07T00:56:31;5.50;99.90
15103;DHT22;7652;53.584;9.998;2024-03-07T00:59:55;5.60;99.90
15103;DHT22;7652;53.584;9.998;2024-03-07T01:03:16;5.60;99.90
15103;DHT22;7652;53.584;9.998;2024-03-07T01:06:38;5.70;99.90
15103;DHT22;7652;53.584;9.998;2024-03-07T01:10:00;5.60;99.90
15103;DHT22;7652;53.584;9.998;2024-03-07T01:13:23;5.60;99.90
15103;DHT22;7652;53.584;9.998;2024-03-07T01:16:46;5.60;99.90
15103;DHT22;7652;53.584;9.998;2024-03-07T01:20:08;5.70;99.90
15103;DHT22;7652;53.584;9.998;2024-03-07T01:23:32;5.70;99.90
15103;DHT22;7652;53.584;9.998;2024-03-07T01:26:53;5.70;99.90
15103;DHT22;7652;53.584;9.998;2024-03-07T01:30:15;5.70;99.90
15103;DHT22;7652;53.584;9.998;2024-03-07T01:33:38;5.70;99.90
15103;DHT22;7652;53.584;9.998;2024-03-07T01:36:59;5.70;99.90
15103;DHT22;7652;53.584;9.998;2024-03-07T01:40:25;5.80;99.90
15103;DHT22;7652;53.584;9.998;2024-03-07T01:43:46;5.70;99.90
15103;DHT22;7652;53.584;9.998;2024-03-07T01:47:07;5.80;99.90
15103;DHT22;7652;53.584;9.998;2024-03-07T01:50:30;5.80;99.90
15103;DHT22;7652;53.584;9.998;2024-03-07T01:53:52;5.80;99.90
15103;DHT22;7652;53.584;9.998;2024-03-07T01:57:15;5.80;99.90
15103;DHT22;7652;53.584;9.998;2024-03-07T02:00:38;5.80;99.90
15103;DHT22;7652;53.584;9.998;2024-03-07T02:03:59;5.80;99.90
15103;DHT22;7652;53.584;9.998;2024-03-07T02:07:22;5.80;99.90
15103;DHT22;7652;53.584;9.998;2024-03-07T02:10:43;5.80;99.90
15103;DHT22;7652;53.584;9.998;2024-03-07T02:14:05;5.80;99.90
15103;DHT22;7652;53.584;9.998;2024-03-07T02:17:27;5.80;99.90
15103;DHT22;7652;53.584;9.998;2024-03-07T02:20:49;5.80;99.90
15103;DHT22;7652;53.584;9.998;2024-03-07T02:24:11;5.90;99.90
15103;DHT22;7652;53.584;9.998;2024-03-07T02:27:34;5.90;99.90
15103;DHT22;7652;53.584;9.998;2024-03-07T02:30:56;5.90;99.90
15103;DHT22;7652;53.584;9.998;2024-03-07T02:34:19;5.80;99.90
15103;DHT22;7652;53.584;9.998;2024-03-07T02:37:42;5.70;99.90
15103;DHT22;7652;53.584;9.998;2024-03-07T02:41:06;5.80;99.90
15103;DHT22;7652;53.584;9.998;2024-03-07T02:44:28;5.80;99.90
15103;DHT22;7652;53.584;9.998;2024-03-07T02:47:51;5.90;99.90
15103;DHT22;7652;53.584;9.998;2024-03-07T02:51:14;5.90;99.90
15103;DHT22;7652;53.584;9.998;2024-03-07T02:54:37;6.00;99.90
15103;DHT22;7652;53.584;9.998;2024-03-07T02:57:59;6.00;99.90
15103;DHT22;7652;53.584;9.998;2024-03-07T03:01:20;5.90;99.90
15103;DHT22;7652;53.584;9.998;2024-03-07T03:04:42;5.90;99.90
15103;DHT22;7652;53.584;9.998;2024-03-07T03:08:04;5.90;99.90
15103;DHT22;7652;53.584;9.998;2024-03-07T03:11:28;5.90;99.90
15103;DHT22;7652;53.584;9.998;2024-03-07T03:14:50;5.80;99.90
15103;DHT22;7652;53.584;9.998;2024-03-07T03:18:13;5.80;99.90
15103;DHT22;7652;53.584;9.998;2024-03-07T03:21:34;5.70;99.90
15103;DHT22;7652;53.584;9.998;2024-03-07T03:24:56;5.70;99.90
15103;DHT22;7652;53.584;9.998;2024-03-07T03:28:19;5.70;99.90
15103;DHT22;7652;53.584;9.998;2024-03-07T03:31:41;5.70;99.90
15103;DHT22;7652;53.584;9.998;2024-03-07T03:35:03;5.70;99.90
15103;DHT22;7652;53.584;9.998;2024-03-07T03:38:25;5.70;99.90
15103;DHT22;7652;53.584;9.998;2024-03-07T03:41:46;5.70;99.90
15103;DHT22;7652;53.584;9.998;2024-03-07T03:45:10;5.70;99.90
15103;DHT22;7652;53.584;9.998;2024-03-07T03:48:34;5.70;99.90
15103;DHT22;7652;53.584;9.998;2024-03-07T03:51:56;5.60;99.90
15103;DHT22;7652;53.584;9.998;2024-03-07T03:55:18;5.60;99.90
15103;DHT22;7652;53.584;9.998;2024-03-07T03:58:41;5.60;99.90
15103;DHT22;7652;53.584;9.998;2024-03-07T04:02:04;5.60;99.90
15103;DHT22;7652;53.584;9.998;2024-03-07T04:05:26;5.60;99.90
15103;DHT22;7652;53.584;9.998;2024-03-07T04:08:47;5.50;99.90
15103;DHT22;7652;53.584;9.998;2024-03-07T04:12:09;5.40;99.90
15103;DHT22;7652;53.584;9.998;2024-03-07T04:15:31;5.40;99.90
15103;DHT22;7652;53.584;9.998;2024-03-07T04:18:58;5.40;99.90
15103;DHT22;7652;53.584;9.998;2024-03-07T04:22:19;5.40;99.90
15103;DHT22;7652;53.584;9.998;2024-03-07T04:25:40;5.40;99.90
15103;DHT22;7652;53.584;9.998;2024-03-07T04:29:02;5.30;99.90
15103;DHT22;7652;53.584;9.998;2024-03-07T04:32:24;5.20;99.90
15103;DHT22;7652;53.584;9.998;2024-03-07T04:35:47;5.30;99.90
15103;DHT22;7652;53.584;9.998;2024-03-07T04:39:08;5.30;99.90
15103;DHT22;7652;53.584;9.998;2024-03-07T04:42:46;5.20;99.90
15103;DHT22;7652;53.584;9.998;2024-03-07T04:46:09;5.20;99.90
15103;DHT22;7652;53.584;9.998;2024-03-07T04:49:32;5.20;99.90
15103;DHT22;7652;53.584;9.998;2024-03-07T04:52:55;5.10;99.90
15103;DHT22;7652;53.584;9.998;2024-03-07T04:56:16;5.00;99.90
15103;DHT22;7652;53.584;9.998;2024-03-07T04:59:38;5.00;99.90
15103;DHT22;7652;53.584;9.998;2024-03-07T05:02:59;5.00;99.90
15103;DHT22;7652;53.584;9.998;2024-03-07T05:06:21;5.00;99.90
15103;DHT22;7652;53.584;9.998;2024-03-07T05:09:44;4.90;99.90
15103;DHT22;7652;53.584;9.998;2024-03-07T05:13:06;4.90;99.90
15103;DHT22;7652;53.584;9.998;2024-03-07T05:16:28;4.90;99.90
15103;DHT22;7652;53.584;9.998;2024-03-07T05:19:49;4.80;99.90
15103;DHT22;7652;53.584;9.998;2024-03-07T05:23:11;4.70;99.90
15103;DHT22;7652;53.584;9.998;2024-03-07T05:26:36;4.60;99.90
15103;DHT22;7652;53.584;9.998;2024-03-07T05:30:01;4.50;99.90
15103;DHT22;7652;53.584;9.998;2024-03-07T05:33:25;4.50;99.90
15103;DHT22;7652;53.584;9.998;2024-03-07T05:36:48;4.50;99.90
15103;DHT22;7652;53.584;9.998;2024-03-07T05:40:10;4.50;99.90
15103;DHT22;7652;53.584;9.998;2024-03-07T05:43:33;4.40;99.90
15103;DHT22;7652;53.584;9.998;2024-03-07T05:46:54;4.40;99.90
15103;DHT22;7652;53.584;9.998;2024-03-07T05:50:16;4.30;99.90
15103;DHT22;7652;53.584;9.998;2024-03-07T05:53:38;4.30;99.90
15103;DHT22;7652;53.584;9.998;2024-03-07T05:57:01;4.40;99.90
15103;DHT22;7652;53.584;9.998;2024-03-07T06:00:24;4.40;99.90
15103;DHT22;7652;53.584;9.998;2024-03-07T06:03:48;4.40;99.90
15103;DHT22;7652;53.584;9.998;2024-03-07T06:07:10;4.40;99.90
15103;DHT22;7652;53.584;9.998;2024-03-07T06:10:32;4.40;99.90
15103;DHT22;7652;53.584;9.998;2024-03-07T06:13:53;4.20;99.90
15103;DHT22;7652;53.584;9.998;2024-03-07T06:17:16;4.20;99.90
15103;DHT22;7652;53.584;9.998;2024-03-07T06:20:42;4.10;99.90
15103;DHT22;7652;53.584;9.998;2024-03-07T06:24:04;4.10;99.90
15103;DHT22;7652;53.584;9.998;2024-03-07T06:27:27;4.20;99.90
15103;DHT22;7652;53.584;9.998;2024-03-07T06:30:57;4.20;99.90
15103;DHT22;7652;53.584;9.998;2024-03-07T06:34:20;4.30;99.90
15103;DHT22;7652;53.584;9.998;2024-03-07T06:37:41;4.40;99.90
15103;DHT22;7652;53.584;9.998;2024-03-07T06:41:03;4.30;99.90
15103;DHT22;7652;53.584;9.998;2024-03-07T06:44:25;4.30;99.90
15103;DHT22;7652;53.584;9.998;2024-03-07T06:47:47;4.30;99.90
15103;DHT22;7652;53.584;9.998;2024-03-07T06:51:10;4.40;99.90
15103;DHT22;7652;53.584;9.998;2024-03-07T06:54:32;4.30;99.90
15103;DHT22;7652;53.584;9.998;2024-03-07T06:57:54;4.30;99.90
15103;DHT22;7652;53.584;9.998;2024-03-07T07:01:16;4.30;99.90
15103;DHT22;7652;53.584;9.998;2024-03-07T07:04:38;4.30;99.90
15103;DHT22;7652;53.584;9.998;2024-03-07T07:08:05;4.40;99.90
15103;DHT22;7652;53.584;9.998;2024-03-07T07:11:27;4.40;99.90
15103;DHT22;7652;53.584;9.998;2024-03-07T07:14:54;4.50;99.90
15103;DHT22;7652;53.584;9.998;2024-03-07T07:18:16;4.60;99.90
15103;DHT22;7652;53.584;9.998;2024-03-07T07:21:38;4.40;99.90
15103;DHT22;7652;53.584;9.998;2024-03-07T07:25:03;4.40;99.90
15103;DHT22;7652;53.584;9.998;2024-03-07T07:28:25;4.30;99.90
15103;DHT22;7652;53.584;9.998;2024-03-07T07:31:47;4.50;99.90
15103;DHT22;7652;53.584;9.998;2024-03-07T07:35:09;4.60;99.90
15103;DHT22;7652;53.584;9.998;2024-03-07T07:38:31;4.60;99.90
15103;DHT22;7652;53.584;9.998;2024-03-07T07:41:55;4.70;99.90
15103;DHT22;7652;53.584;9.998;2024-03-07T07:45:18;4.80;99.90
15103;DHT22;7652;53.584;9.998;2024-03-07T07:48:39;4.90;99.90
15103;DHT22;7652;53.584;9.998;2024-03-07T07:52:02;5.00;99.90
15103;DHT22;7652;53.584;9.998;2024-03-07T07:55:25;5.00;99.90
15103;DHT22;7652;53.584;9.998;2024-03-07T07:58:48;5.00;99.90
15103;DHT22;7652;53.584;9.998;2024-03-07T08:02:10;5.10;99.90
15103;DHT22;7652;53.584;9.998;2024-03-07T08:05:33;5.20;99.90
15103;DHT22;7652;53.584;9.998;2024-03-07T08:08:56;5.20;99.90
15103;DHT22;7652;53.584;9.998;2024-03-07T08:12:18;5.20;99.90
15103;DHT22;7652;53.584;9.998;2024-03-07T08:15:41;5.10;99.90
15103;DHT22;7652;53.584;9.998;2024-03-07T08:19:03;5.10;99.90
15103;DHT22;7652;53.584;9.998;2024-03-07T08:22:24;5.10;99.90
15103;DHT22;7652;53.584;9.998;2024-03-07T08:25:46;5.10;99.90
15103;DHT22;7652;53.584;9.998;2024-03-07T08:29:07;5.10;99.90
15103;DHT22;7652;53.584;9.998;2024-03-07T08:32:30;5.20;99.90
15103;DHT22;7652;53.584;9.998;2024-03-07T08:35:52;5.30;99.90
15103;DHT22;7652;53.584;9.998;2024-03-07T08:39:14;6.00;99.90
15103;DHT22;7652;53.584;9.998;2024-03-07T08:42:36;6.10;99.90
15103;DHT22;7652;53.584;9.998;2024-03-07T08:45:57;6.20;99.90
15103;DHT22;7652;53.584;9.998;2024-03-07T08:49:20;6.90;99.90
15103;DHT22;7652;53.584;9.998;2024-03-07T08:52:42;7.90;99.90
15103;DHT22;7652;53.584;9.998;2024-03-07T08:56:05;9.10;99.90
15103;DHT22;7652;53.584;9.998;2024-03-07T08:59:27;8.30;99.90
15103;DHT22;7652;53.584;9.998;2024-03-07T09:02:49;7.40;99.90
15103;DHT22;7652;53.584;9.998;2024-03-07T09:06:14;7.00;99.90
15103;DHT22;7652;53.584;9.998;2024-03-07T09:09:36;6.80;99.90
15103;DHT22;7652;53.584;9.998;2024-03-07T09:12:58;6.40;99.90
15103;DHT22;7652;53.584;9.998;2024-03-07T09:16:20;6.10;99.90
15103;DHT22;7652;53.584;9.998;2024-03-07T09:19:42;5.90;99.90
15103;DHT22;7652;53.584;9.998;2024-03-07T09:23:04;5.90;99.90
15103;DHT22;7652;53.584;9.998;2024-03-07T09:26:26;5.90;99.90
15103;DHT22;7652;53.584;9.998;2024-03-07T09:29:47;5.80;99.90
15103;DHT22;7652;53.584;9.998;2024-03-07T09:33:08;5.70;99.90
15103;DHT22;7652;53.584;9.998;2024-03-07T09:36:32;5.50;99.90
15103;DHT22;7652;53.584;9.998;2024-03-07T09:39:55;5.40;99.90
15103;DHT22;7652;53.584;9.998;2024-03-07T09:43:17;5.40;99.90
15103;DHT22;7652;53.584;9.998;2024-03-07T09:46:40;5.40;99.90
15103;DHT22;7652;53.584;9.998;2024-03-07T09:50:03;5.40;99.90
15103;DHT22;7652;53.584;9.998;2024-03-07T09:53:28;5.50;99.90
15103;DHT22;7652;53.584;9.998;2024-03-07T09:56:53;5.50;99.90
15103;DHT22;7652;53.584;9.998;2024-03-07T10:00:17;5.50;99.90
15103;DHT22;7652;53.584;9.998;2024-03-07T10:03:43;5.40;99.90
15103;DHT22;7652;53.584;9.998;2024-03-07T10:07:06;5.20;99.90
15103;DHT22;7652;53.584;9.998;2024-03-07T10:10:31;5.30;99.90
15103;DHT22;7652;53.584;9.998;2024-03-07T10:13:54;5.30;99.90
15103;DHT22;7652;53.584;9.998;2024-03-07T10:17:16;5.40;99.90
15103;DHT22;7652;53.584;9.998;2024-03-07T10:20:38;5.50;99.90
15103;DHT22;7652;53.584;9.998;2024-03-07T10:24:06;5.60;99.90
15103;DHT22;7652;53.584;9.998;2024-03-07T10:27:28;5.70;99.90
15103;DHT22;7652;53.584;9.998;2024-03-07T10:30:51;5.80;99.90
15103;DHT22;7652;53.584;9.998;2024-03-07T10:34:13;5.80;99.90
15103;DHT22;7652;53.584;9.998;2024-03-07T10:37:35;6.00;99.90
15103;DHT22;7652;53.584;9.998;2024-03-07T10:40:58;6.20;99.90
15103;DHT22;7652;53.584;9.998;2024-03-07T10:44:24;6.30;99.90
15103;DHT22;7652;53.584;9.998;2024-03-07T10:47:51;6.50;99.90
15103;DHT22;7652;53.584;9.998;2024-03-07T10:51:18;6.70;99.90
15103;DHT22;7652;53.584;9.998;2024-03-07T10:54:55;6.90;99.90
15103;DHT22;7652;53.584;9.998;2024-03-07T10:58:42;7.00;99.90
15103;DHT22;7652;53.584;9.998;2024-03-07T11:02:14;7.00;99.90
15103;DHT22;7652;53.584;9.998;2024-03-07T11:05:38;7.20;99.90
15103;DHT22;7652;53.584;9.998;2024-03-07T11:09:01;7.20;99.90
15103;DHT22;7652;53.584;9.998;2024-03-07T11:12:31;7.20;99.90
15103;DHT22;7652;53.584;9.998;2024-03-07T11:15:55;7.10;99.90
15103;DHT22;7652;53.584;9.998;2024-03-07T11:19:19;7.10;99.90
15103;DHT22;7652;53.584;9.998;2024-03-07T11:22:42;7.20;99.90
15103;DHT22;7652;53.584;9.998;2024-03-07T11:26:07;7.40;99.90
15103;DHT22;7652;53.584;9.998;2024-03-07T11:29:58;7.40;99.90
15103;DHT22;7652;53.584;9.998;2024-03-07T11:33:27;7.50;99.90
15103;DHT22;7652;53.584;9.998;2024-03-07T11:36:49;7.70;99.90
15103;DHT22;7652;53.584;9.998;2024-03-07T11:40:42;7.90;99.90
15103;DHT22;7652;53.584;9.998;2024-03-07T11:44:04;7.90;99.90
15103;DHT22;7652;53.584;9.998;2024-03-07T11:47:35;7.80;99.90
15103;DHT22;7652;53.584;9.998;2024-03-07T11:50:59;7.90;99.90
15103;DHT22;7652;53.584;9.998;2024-03-07T11:54:20;8.00;99.90
15103;DHT22;7652;53.584;9.998;2024-03-07T11:57:52;7.90;99.90
15103;DHT22;7652;53.584;9.998;2024-03-07T12:01:14;7.90;99.90
15103;DHT22;7652;53.584;9.998;2024-03-07T12:04:37;7.80;99.90
15103;DHT22;7652;53.584;9.998;2024-03-07T12:08:00;7.70;99.90
15103;DHT22;7652;53.584;9.998;2024-03-07T12:11:25;7.80;99.90
15103;DHT22;7652;53.584;9.998;2024-03-07T12:14:50;7.90;99.90
15103;DHT22;7652;53.584;9.998;2024-03-07T12:18:13;7.90;99.90
15103;DHT22;7652;53.584;9.998;2024-03-07T12:21:38;8.00;99.90
15103;DHT22;7652;53.584;9.998;2024-03-07T12:25:01;8.00;99.90
15103;DHT22;7652;53.584;9.998;2024-03-07T12:28:23;7.60;99.90
15103;DHT22;7652;53.584;9.998;2024-03-07T12:31:51;7.70;99.90
15103;DHT22;7652;53.584;9.998;2024-03-07T12:35:12;7.70;99.90
15103;DHT22;7652;53.584;9.998;2024-03-07T12:38:34;7.80;99.90
15103;DHT22;7652;53.584;9.998;2024-03-07T12:41:57;7.80;99.90
15103;DHT22;7652;53.584;9.998;2024-03-07T12:45:19;7.80;99.90
15103;DHT22;7652;53.584;9.998;2024-03-07T12:48:42;7.90;99.90
15103;DHT22;7652;53.584;9.998;2024-03-07T12:52:06;8.20;99.90
15103;DHT22;7652;53.584;9.998;2024-03-07T12:55:29;8.40;99.90
15103;DHT22;7652;53.584;9.998;2024-03-07T12:58:50;8.40;99.90
15103;DHT22;7652;53.584;9.998;2024-03-07T13:02:12;8.50;99.90
15103;DHT22;7652;53.584;9.998;2024-03-07T13:05:35;8.70;99.90
15103;DHT22;7652;53.584;9.998;2024-03-07T13:09:00;8.50;99.90
15103;DHT22;7652;53.584;9.998;2024-03-07T13:12:23;8.60;99.90
15103;DHT22;7652;53.584;9.998;2024-03-07T13:15:45;8.90;99.90
15103;DHT22;7652;53.584;9.998;2024-03-07T13:19:07;9.00;99.90
15103;DHT22;7652;53.584;9.998;2024-03-07T13:22:34;9.10;99.90
15103;DHT22;7652;53.584;9.998;2024-03-07T13:25:55;8.90;99.90
15103;DHT22;7652;53.584;9.998;2024-03-07T13:29:17;8.60;99.90
15103;DHT22;7652;53.584;9.998;2024-03-07T13:32:44;8.60;99.90
15103;DHT22;7652;53.584;9.998;2024-03-07T13:36:07;8.50;99.90
15103;DHT22;7652;53.584;9.998;2024-03-07T13:39:30;8.70;99.90
15103;DHT22;7652;53.584;9.998;2024-03-07T13:42:53;8.90;99.90
15103;DHT22;7652;53.584;9.998;2024-03-07T13:46:16;9.10;99.90
15103;DHT22;7652;53.584;9.998;2024-03-07T13:49:38;9.00;99.90
15103;DHT22;7652;53.584;9.998;2024-03-07T13:53:00;9.20;99.90
15103;DHT22;7652;53.584;9.998;2024-03-07T13:56:46;9.10;99.90
15103;DHT22;7652;53.584;9.998;2024-03-07T14:00:25;9.70;99.90
15103;DHT22;7652;53.584;9.998;2024-03-07T14:04:16;10.50;99.90
15103;DHT22;7652;53.584;9.998;2024-03-07T14:07:53;10.60;99.90
15103;DHT22;7652;53.584;9.998;2024-03-07T14:11:54;10.00;99.90
15103;DHT22;7652;53.584;9.998;2024-03-07T14:20:01;9.30;99.90
15103;DHT22;7652;53.584;9.998;2024-03-07T14:24:02;9.40;99.90
15103;DHT22;7652;53.584;9.998;2024-03-07T14:27:33;9.30;99.90
15103;DHT22;7652;53.584;9.998;2024-03-07T14:30:56;9.40;99.90
15103;DHT22;7652;53.584;9.998;2024-03-07T14:34:33;9.30;99.90
15103;DHT22;7652;53.584;9.998;2024-03-07T14:38:05;9.40;99.90
15103;DHT22;7652;53.584;9.998;2024-03-07T14:41:44;9.50;99.90
15103;DHT22;7652;53.584;9.998;2024-03-07T14:45:12;9.40;99.90
15103;DHT22;7652;53.584;9.998;2024-03-07T14:48:34;9.40;99.90
15103;DHT22;7652;53.584;9.998;2024-03-07T14:51:56;9.30;99.90
15103;DHT22;7652;53.584;9.998;2024-03-07T14:55:20;9.10;99.90
15103;DHT22;7652;53.584;9.998;2024-03-07T14:58:42;9.00;99.90
15103;DHT22;7652;53.584;9.998;2024-03-07T15:02:05;9.00;99.90
15103;DHT22;7652;53.584;9.998;2024-03-07T15:05:31;9.10;99.90
15103;DHT22;7652;53.584;9.998;2024-03-07T15:08:52;9.00;99.90
15103;DHT22;7652;53.584;9.998;2024-03-07T15:12:14;9.00;99.90
15103;DHT22;7652;53.584;9.998;2024-03-07T15:15:36;9.10;99.90
15103;DHT22;7652;53.584;9.998;2024-03-07T15:18:58;9.20;99.90
15103;DHT22;7652;53.584;9.998;2024-03-07T15:22:20;9.30;99.90
15103;DHT22;7652;53.584;9.998;2024-03-07T15:25:42;9.40;99.90
15103;DHT22;7652;53.584;9.998;2024-03-07T15:29:03;9.30;99.90
15103;DHT22;7652;53.584;9.998;2024-03-07T15:32:25;9.30;99.90
15103;DHT22;7652;53.584;9.998;2024-03-07T15:35:48;9.30;99.90
15103;DHT22;7652;53.584;9.998;2024-03-07T15:39:10;9.30;99.90
15103;DHT22;7652;53.584;9.998;2024-03-07T15:42:47;9.30;99.90
15103;DHT22;7652;53.584;9.998;2024-03-07T15:46:11;9.30;99.90
15103;DHT22;7652;53.584;9.998;2024-03-07T15:49:38;9.40;99.90
15103;DHT22;7652;53.584;9.998;2024-03-07T15:53:03;9.40;99.90
15103;DHT22;7652;53.584;9.998;2024-03-07T15:56:26;9.30;99.90
15103;DHT22;7652;53.584;9.998;2024-03-07T15:59:49;9.20;99.90
15103;DHT22;7652;53.584;9.998;2024-03-07T16:03:14;9.00;99.90
15103;DHT22;7652;53.584;9.998;2024-03-07T16:06:36;8.70;99.90
15103;DHT22;7652;53.584;9.998;2024-03-07T16:09:59;8.60;99.90
15103;DHT22;7652;53.584;9.998;2024-03-07T16:13:21;8.50;99.90
15103;DHT22;7652;53.584;9.998;2024-03-07T16:16:44;8.40;99.90
15103;DHT22;7652;53.584;9.998;2024-03-07T16:20:07;8.30;99.90
15103;DHT22;7652;53.584;9.998;2024-03-07T16:23:32;8.20;99.90
15103;DHT22;7652;53.584;9.998;2024-03-07T16:26:55;8.10;99.90
15103;DHT22;7652;53.584;9.998;2024-03-07T16:30:18;8.00;99.90
15103;DHT22;7652;53.584;9.998;2024-03-07T16:33:41;8.00;99.90
15103;DHT22;7652;53.584;9.998;2024-03-07T16:37:04;7.90;99.90
15103;DHT22;7652;53.584;9.998;2024-03-07T16:40:27;7.80;99.90
15103;DHT22;7652;53.584;9.998;2024-03-07T16:43:50;7.80;99.90
15103;DHT22;7652;53.584;9.998;2024-03-07T16:47:12;7.60;99.90
15103;DHT22;7652;53.584;9.998;2024-03-07T16:50:33;7.50;99.90
15103;DHT22;7652;53.584;9.998;2024-03-07T16:53:55;7.40;99.90
15103;DHT22;7652;53.584;9.998;2024-03-07T16:57:17;7.30;99.90
15103;DHT22;7652;53.584;9.998;2024-03-07T17:00:40;7.20;99.90
15103;DHT22;7652;53.584;9.998;2024-03-07T17:04:04;7.20;99.90
15103;DHT22;7652;53.584;9.998;2024-03-07T17:07:28;7.10;99.90
15103;DHT22;7652;53.584;9.998;2024-03-07T17:10:51;7.00;99.90
15103;DHT22;7652;53.584;9.998;2024-03-07T17:14:13;6.90;99.90
15103;DHT22;7652;53.584;9.998;2024-03-07T17:17:38;6.80;99.90
15103;DHT22;7652;53.584;9.998;2024-03-07T17:21:00;6.70;99.90
15103;DHT22;7652;53.584;9.998;2024-03-07T17:24:23;6.60;99.90
15103;DHT22;7652;53.584;9.998;2024-03-07T17:27:47;6.50;99.90
15103;DHT22;7652;53.584;9.998;2024-03-07T17:31:09;6.40;99.90
15103;DHT22;7652;53.584;9.998;2024-03-07T17:34:33;6.30;99.90
15103;DHT22;7652;53.584;9.998;2024-03-07T17:37:55;6.30;99.90
15103;DHT22;7652;53.584;9.998;2024-03-07T17:41:16;6.20;99.90
15103;DHT22;7652;53.584;9.998;2024-03-07T17:44:38;6.20;99.90
15103;DHT22;7652;53.584;9.998;2024-03-07T17:47:59;6.00;99.90
15103;DHT22;7652;53.584;9.998;2024-03-07T17:51:23;6.00;99.90
15103;DHT22;7652;53.584;9.998;2024-03-07T17:54:44;5.90;99.90
15103;DHT22;7652;53.584;9.998;2024-03-07T17:58:07;5.90;99.90
15103;DHT22;7652;53.584;9.998;2024-03-07T18:01:31;5.80;99.90
15103;DHT22;7652;53.584;9.998;2024-03-07T18:04:53;5.70;99.90
15103;DHT22;7652;53.584;9.998;2024-03-07T18:08:16;5.70;99.90
15103;DHT22;7652;53.584;9.998;2024-03-07T18:11:41;5.70;99.90
15103;DHT22;7652;53.584;9.998;2024-03-07T18:15:03;5.60;99.90
15103;DHT22;7652;53.584;9.998;2024-03-07T18:18:40;5.60;99.90
15103;DHT22;7652;53.584;9.998;2024-03-07T18:22:02;5.50;99.90
15103;DHT22;7652;53.584;9.998;2024-03-07T18:25:27;5.40;99.90
15103;DHT22;7652;53.584;9.998;2024-03-07T18:28:48;5.40;99.90
15103;DHT22;7652;53.584;9.998;2024-03-07T18:32:12;5.30;99.90
15103;DHT22;7652;53.584;9.998;2024-03-07T18:35:34;5.20;99.90
15103;DHT22;7652;53.584;9.998;2024-03-07T18:38:57;5.10;99.90
15103;DHT22;7652;53.584;9.998;2024-03-07T18:42:20;5.10;99.90
15103;DHT22;7652;53.584;9.998;2024-03-07T18:45:41;5.10;99.90
15103;DHT22;7652;53.584;9.998;2024-03-07T18:49:06;5.00;99.90
15103;DHT22;7652;53.584;9.998;2024-03-07T18:52:33;5.00;99.90
15103;DHT22;7652;53.584;9.998;2024-03-07T18:55:54;5.00;99.90
15103;DHT22;7652;53.584;9.998;2024-03-07T18:59:18;4.90;99.90
15103;DHT22;7652;53.584;9.998;2024-03-07T19:02:40;4.80;99.90
15103;DHT22;7652;53.584;9.998;2024-03-07T19:06:02;4.80;99.90
15103;DHT22;7652;53.584;9.998;2024-03-07T19:09:29;4.70;99.90
15103;DHT22;7652;53.584;9.998;2024-03-07T19:12:52;4.70;99.90
15103;DHT22;7652;53.584;9.998;2024-03-07T19:16:15;4.70;99.90
15103;DHT22;7652;53.584;9.998;2024-03-07T19:19:36;4.70;99.90
15103;DHT22;7652;53.584;9.998;2024-03-07T19:22:57;4.60;99.90
15103;DHT22;7652;53.584;9.998;2024-03-07T19:26:19;4.60;99.90
15103;DHT22;7652;53.584;9.998;2024-03-07T19:29:45;4.60;99.90
15103;DHT22;7652;53.584;9.998;2024-03-07T19:33:10;4.50;99.90
15103;DHT22;7652;53.584;9.998;2024-03-07T19:36:35;4.50;99.90
15103;DHT22;7652;53.584;9.998;2024-03-07T19:39:58;4.50;99.90
15103;DHT22;7652;53.584;9.998;2024-03-07T19:43:19;4.50;99.90
15103;DHT22;7652;53.584;9.998;2024-03-07T19:46:44;4.50;99.90
15103;DHT22;7652;53.584;9.998;2024-03-07T19:50:09;4.50;99.90
15103;DHT22;7652;53.584;9.998;2024-03-07T19:53:32;4.50;99.90
15103;DHT22;7652;53.584;9.998;2024-03-07T19:56:54;4.50;99.90
15103;DHT22;7652;53.584;9.998;2024-03-07T20:00:24;4.40;99.90
15103;DHT22;7652;53.584;9.998;2024-03-07T20:03:51;4.40;99.90
15103;DHT22;7652;53.584;9.998;2024-03-07T20:07:14;4.40;99.90
15103;DHT22;7652;53.584;9.998;2024-03-07T20:10:37;4.30;99.90
15103;DHT22;7652;53.584;9.998;2024-03-07T20:14:01;4.30;99.90
15103;DHT22;7652;53.584;9.998;2024-03-07T20:17:23;4.20;99.90
15103;DHT22;7652;53.584;9.998;2024-03-07T20:20:44;4.20;99.90
15103;DHT22;7652;53.584;9.998;2024-03-07T20:24:09;4.20;99.90
15103;DHT22;7652;53.584;9.998;2024-03-07T20:27:31;4.20;99.90
15103;DHT22;7652;53.584;9.998;2024-03-07T20:30:55;4.30;99.90
15103;DHT22;7652;53.584;9.998;2024-03-07T20:34:16;4.30;99.90
15103;DHT22;7652;53.584;9.998;2024-03-07T20:37:38;4.30;99.90
15103;DHT22;7652;53.584;9.998;2024-03-07T20:41:01;4.20;99.90
15103;DHT22;7652;53.584;9.998;2024-03-07T20:44:24;4.30;99.90
15103;DHT22;7652;53.584;9.998;2024-03-07T20:47:47;4.30;99.90
15103;DHT22;7652;53.584;9.998;2024-03-07T20:51:09;4.30;99.90
15103;DHT22;7652;53.584;9.998;2024-03-07T20:54:32;4.30;99.90
15103;DHT22;7652;53.584;9.998;2024-03-07T20:57:55;4.20;99.90
15103;DHT22;7652;53.584;9.998;2024-03-07T21:01:21;4.10;99.90
15103;DHT22;7652;53.584;9.998;2024-03-07T21:04:44;4.10;99.90
15103;DHT22;7652;53.584;9.998;2024-03-07T21:08:06;4.10;99.90
15103;DHT22;7652;53.584;9.998;2024-03-07T21:11:29;4.20;99.90
15103;DHT22;7652;53.584;9.998;2024-03-07T21:14:54;4.10;99.90
15103;DHT22;7652;53.584;9.998;2024-03-07T21:18:17;4.10;99.90
15103;DHT22;7652;53.584;9.998;2024-03-07T21:21:40;4.10;99.90
15103;DHT22;7652;53.584;9.998;2024-03-07T21:25:02;4.10;99.90
15103;DHT22;7652;53.584;9.998;2024-03-07T21:28:24;4.00;99.90
15103;DHT22;7652;53.584;9.998;2024-03-07T21:31:48;4.00;99.90
15103;DHT22;7652;53.584;9.998;2024-03-07T21:35:09;4.10;99.90
15103;DHT22;7652;53.584;9.998;2024-03-07T21:38:32;4.00;99.90
15103;DHT22;7652;53.584;9.998;2024-03-07T21:41:55;4.00;99.90
15103;DHT22;7652;53.584;9.998;2024-03-07T21:45:17;4.00;99.90
15103;DHT22;7652;53.584;9.998;2024-03-07T21:48:40;4.00;99.90
15103;DHT22;7652;53.584;9.998;2024-03-07T21:52:04;4.00;99.90
15103;DHT22;7652;53.584;9.998;2024-03-07T21:55:26;3.90;99.90
15103;DHT22;7652;53.584;9.998;2024-03-07T21:58:49;3.90;99.90
15103;DHT22;7652;53.584;9.998;2024-03-07T22:02:11;3.90;99.90
15103;DHT22;7652;53.584;9.998;2024-03-07T22:05:36;3.90;99.90
15103;DHT22;7652;53.584;9.998;2024-03-07T22:08:59;3.80;99.90
15103;DHT22;7652;53.584;9.998;2024-03-07T22:12:22;3.80;99.90
15103;DHT22;7652;53.584;9.998;2024-03-07T22:15:43;3.80;99.90